createdAt,value
2022-07-29T00:03:25.501Z,24.60
2022-07-29T00:07:27.563Z,24.80
2022-07-29T00:11:29.450Z,24.80
2022-07-29T00:15:31.229Z,24.90
2022-07-29T00:19:32.994Z,24.60
2022-07-29T00:23:36.806Z,24.70
2022-07-29T00:27:38.876Z,24.40
2022-07-29T00:31:40.663Z,24.40
2022-07-29T00:35:45.386Z,24.20
2022-07-29T00:39:47.136Z,24.10
2022-07-29T00:43:48.921Z,24.50
2022-07-29T00:47:50.698Z,24.70
2022-07-29T00:51:52.602Z,24.50
2022-07-29T00:55:56.108Z,24.50
2022-07-29T00:59:58.061Z,24.60
2022-07-29T01:04:00.060Z,24.70
2022-07-29T01:08:02.562Z,24.70
2022-07-29T01:12:05.846Z,24.80
2022-07-29T01:16:24.383Z,24.60
2022-07-29T01:21:03.732Z,24.70
2022-07-29T01:25:42.928Z,24.40
2022-07-29T01:30:00.891Z,24.00
2022-07-29T01:34:06.349Z,23.50
2022-07-29T01:38:18.562Z,23.90
2022-07-29T01:42:30.493Z,23.10
2022-07-29T01:46:36.549Z,23.30
2022-07-29T01:50:47.359Z,23.60
2022-07-29T01:54:57.850Z,24.00
2022-07-29T01:59:01.942Z,24.30
2022-07-29T02:03:09.856Z,23.90
2022-07-29T02:07:16.660Z,23.60
2022-07-29T02:11:18.768Z,23.10
2022-07-29T02:15:21.187Z,23.50
2022-07-29T02:19:26.707Z,23.60
2022-07-29T02:23:29.234Z,23.50
2022-07-29T02:27:34.573Z,24.00
2022-07-29T02:31:38.150Z,23.80
2022-07-29T02:35:43.237Z,24.10
2022-07-29T02:39:48.819Z,24.00
2022-07-29T02:43:55.945Z,23.70
2022-07-29T02:48:00.661Z,24.00
2022-07-29T02:52:22.855Z,23.90
2022-07-29T02:56:35.958Z,23.50
2022-07-29T03:00:40.689Z,22.90
2022-07-29T03:04:44.560Z,23.30
2022-07-29T03:08:47.242Z,23.60
2022-07-29T03:12:49.628Z,23.50
2022-07-29T03:16:52.669Z,23.00
2022-07-29T03:20:54.843Z,23.20
2022-07-29T03:24:56.847Z,22.60
2022-07-29T03:28:58.564Z,22.00
2022-07-29T03:33:01.916Z,22.00
2022-07-29T03:37:04.512Z,22.60
2022-07-29T03:41:12.545Z,23.00
2022-07-29T03:45:18.948Z,23.40
2022-07-29T03:49:22.646Z,23.30
2022-07-29T03:53:24.671Z,22.40
2022-07-29T03:57:28.920Z,22.50
2022-07-29T04:01:33.273Z,22.60
2022-07-29T04:05:35.136Z,22.90
2022-07-29T04:09:36.862Z,23.20
2022-07-29T04:13:38.674Z,23.30
2022-07-29T04:17:41.673Z,23.10
2022-07-29T04:21:44.695Z,23.40
2022-07-29T04:25:46.621Z,23.30
2022-07-29T04:29:56.354Z,23.20
2022-07-29T04:33:58.933Z,22.70
2022-07-29T04:38:00.645Z,22.70
2022-07-29T04:42:02.406Z,22.90
2022-07-29T04:46:06.976Z,22.90
2022-07-29T04:50:10.039Z,22.80
2022-07-29T04:54:11.841Z,23.00
2022-07-29T04:58:13.674Z,22.80
2022-07-29T05:02:15.487Z,23.00
2022-07-29T05:06:17.288Z,22.90
2022-07-29T05:10:19.113Z,23.20
2022-07-29T05:14:21.134Z,23.50
2022-07-29T05:18:26.028Z,22.90
2022-07-29T05:22:28.248Z,22.50
2022-07-29T05:26:29.996Z,22.50
2022-07-29T05:30:31.826Z,22.80
2022-07-29T05:34:36.000Z,23.50
2022-07-29T05:38:38.071Z,24.10
2022-07-29T05:42:39.901Z,24.40
2022-07-29T05:46:41.911Z,24.50
2022-07-29T05:50:44.494Z,24.10
2022-07-29T05:54:47.494Z,24.20
2022-07-29T05:58:49.244Z,24.00
2022-07-29T06:02:51.027Z,24.30
2022-07-29T06:06:52.826Z,24.20
2022-07-29T06:10:54.617Z,24.40
2022-07-29T06:14:56.355Z,24.50
2022-07-29T06:18:59.558Z,24.80
2022-07-29T06:23:01.740Z,24.80
2022-07-29T06:27:03.578Z,24.80
2022-07-29T06:31:06.625Z,25.00
2022-07-29T06:35:39.298Z,25.00
2022-07-29T06:39:36.475Z,24.90
2022-07-29T06:43:51.918Z,25.00
2022-07-29T06:47:54.605Z,25.30
2022-07-29T06:51:56.847Z,24.90
2022-07-29T06:56:00.233Z,24.60
2022-07-29T07:00:02.393Z,25.20
2022-07-29T07:04:04.352Z,25.50
2022-07-29T07:08:06.538Z,25.70
2022-07-29T07:12:08.721Z,25.80
2022-07-29T07:16:10.564Z,26.00
2022-07-29T07:20:13.292Z,25.90
2022-07-29T07:24:15.566Z,25.70
2022-07-29T07:28:17.592Z,25.30
2022-07-29T07:32:19.496Z,25.40
2022-07-29T07:36:21.432Z,25.50
2022-07-29T07:40:23.374Z,25.90
2022-07-29T07:44:25.088Z,26.20
2022-07-29T07:52:51.969Z,26.10
2022-07-29T07:56:53.787Z,25.80
2022-07-29T08:00:55.644Z,25.70
2022-07-29T08:04:57.457Z,25.90
2022-07-29T08:09:19.546Z,25.90
2022-07-29T08:13:22.682Z,25.20
2022-07-29T08:17:24.510Z,25.60
2022-07-29T08:21:26.841Z,26.00
2022-07-29T08:25:28.870Z,25.90
2022-07-29T08:29:30.612Z,25.90
2022-07-29T08:33:33.250Z,26.10
2022-07-29T08:37:35.014Z,26.30
2022-07-29T08:41:36.872Z,26.80
2022-07-29T08:45:48.481Z,26.90
2022-07-29T08:49:51.214Z,26.70
2022-07-29T08:53:53.961Z,26.40
2022-07-29T08:57:57.516Z,26.30
2022-07-29T09:02:01.289Z,25.90
2022-07-29T09:06:04.625Z,26.20
2022-07-29T09:10:07.189Z,26.40
2022-07-29T09:14:11.839Z,26.60
2022-07-29T09:18:30.252Z,27.20
2022-07-29T09:22:36.676Z,27.00
2022-07-29T09:26:43.054Z,26.20
2022-07-29T09:30:57.594Z,26.30
2022-07-29T09:35:22.816Z,26.60
2022-07-29T09:39:33.227Z,27.10
2022-07-29T09:43:35.391Z,27.30
2022-07-29T09:47:46.624Z,27.30
2022-07-29T09:51:48.729Z,27.10
2022-07-29T09:55:52.066Z,27.00
2022-07-29T10:00:04.442Z,27.20
2022-07-29T10:04:06.400Z,27.50
2022-07-29T10:08:09.100Z,27.50
2022-07-29T10:12:16.540Z,28.00
2022-07-29T10:16:19.035Z,28.00
2022-07-29T10:20:23.040Z,28.00
2022-07-29T10:24:30.207Z,28.40
2022-07-29T10:28:33.452Z,28.60
2022-07-29T10:32:56.852Z,28.60
2022-07-29T10:37:19.477Z,28.30
2022-07-29T10:41:28.997Z,28.60
2022-07-29T10:45:34.570Z,27.90
2022-07-29T10:49:36.390Z,28.00
2022-07-29T10:53:54.119Z,28.30
2022-07-29T10:58:19.537Z,28.20
2022-07-29T11:02:43.951Z,28.20
2022-07-29T11:07:04.012Z,27.90
2022-07-29T11:11:22.285Z,27.70
2022-07-29T11:15:25.216Z,26.70
2022-07-29T11:19:31.016Z,24.50
2022-07-29T11:23:42.802Z,23.80
2022-07-29T11:27:46.066Z,22.50
2022-07-29T11:31:55.740Z,21.40
2022-07-29T11:36:16.820Z,21.00
2022-07-29T11:40:20.268Z,21.70
2022-07-29T11:45:08.836Z,22.10
2022-07-29T11:49:32.394Z,22.40
2022-07-29T11:53:36.828Z,22.00
2022-07-29T11:57:39.086Z,22.10
2022-07-29T12:02:18.039Z,23.20
2022-07-29T12:06:18.209Z,23.70
2022-07-29T12:10:30.006Z,23.60
2022-07-29T12:14:34.433Z,22.70
2022-07-29T12:18:36.469Z,22.40
2022-07-29T12:22:41.976Z,21.70
2022-07-29T12:26:59.414Z,21.60
2022-07-29T12:31:02.113Z,21.80
2022-07-29T12:35:14.276Z,21.90
2022-07-29T12:39:19.711Z,20.10
2022-07-29T12:43:26.285Z,19.80
2022-07-29T12:47:28.718Z,20.90
2022-07-29T12:51:35.782Z,21.30
2022-07-29T12:55:57.112Z,21.50
2022-07-29T13:00:10.988Z,22.30
2022-07-29T13:04:26.876Z,22.70
2022-07-29T13:08:29.804Z,22.70
2022-07-29T13:12:31.820Z,22.30
2022-07-29T13:16:33.789Z,22.50
2022-07-29T13:20:36.122Z,23.20
2022-07-29T13:24:50.444Z,22.50
2022-07-29T13:28:52.214Z,22.70
2022-07-29T13:32:54.139Z,22.90
2022-07-29T13:36:56.133Z,22.60
2022-07-29T13:40:58.111Z,22.30
2022-07-29T13:45:01.057Z,22.70
2022-07-29T13:49:03.100Z,22.80
2022-07-29T13:53:04.982Z,23.00
2022-07-29T13:57:07.002Z,23.50
2022-07-29T14:01:09.970Z,23.00
2022-07-29T14:05:11.975Z,23.50
2022-07-29T14:09:13.858Z,23.80
2022-07-29T14:13:25.260Z,23.70
2022-07-29T14:17:28.318Z,23.70
2022-07-29T14:21:30.218Z,24.00
2022-07-29T14:25:34.385Z,23.80
2022-07-29T14:29:37.127Z,23.30
2022-07-29T14:33:40.568Z,23.60
2022-07-29T14:37:42.475Z,23.50
2022-07-29T14:41:44.569Z,23.50
2022-07-29T14:45:46.665Z,22.60
2022-07-29T14:49:48.598Z,22.70
2022-07-29T14:53:50.652Z,23.30
2022-07-29T14:57:57.957Z,23.70
2022-07-29T15:02:05.160Z,23.80
2022-07-29T15:06:07.360Z,23.90
2022-07-29T15:10:10.619Z,23.90
2022-07-29T15:14:16.877Z,24.40
2022-07-29T15:18:25.717Z,24.60
2022-07-29T15:22:27.831Z,24.80
2022-07-29T15:26:29.634Z,24.90
2022-07-29T15:30:34.706Z,25.00
2022-07-29T15:34:37.625Z,25.10
2022-07-29T15:38:41.993Z,24.80
2022-07-29T15:42:43.852Z,24.60
2022-07-29T15:47:05.609Z,24.70
2022-07-29T15:51:07.732Z,24.60
2022-07-29T15:55:09.866Z,24.70
2022-07-29T15:59:11.885Z,25.00
2022-07-29T16:03:24.757Z,25.00
2022-07-29T16:07:32.546Z,24.90
2022-07-29T16:11:34.808Z,24.80
2022-07-29T16:15:36.808Z,25.00
2022-07-29T16:19:38.891Z,25.00
2022-07-29T16:23:41.062Z,25.20
2022-07-29T16:27:44.135Z,25.10
2022-07-29T16:31:46.303Z,24.60
2022-07-29T16:35:48.723Z,24.60
2022-07-29T16:39:50.911Z,24.80
2022-07-29T16:43:53.107Z,25.00
2022-07-29T16:48:00.138Z,24.80
2022-07-29T16:52:02.425Z,24.90
2022-07-29T16:56:04.462Z,24.70
2022-07-29T17:00:10.889Z,24.30
2022-07-29T17:04:14.973Z,24.40
2022-07-29T17:08:20.250Z,24.50
2022-07-29T17:12:22.101Z,24.30
2022-07-29T17:16:27.136Z,24.30
2022-07-29T17:20:33.124Z,23.90
2022-07-29T17:24:35.105Z,23.80
2022-07-29T17:28:37.682Z,24.00
2022-07-29T17:32:40.014Z,23.00
2022-07-29T17:36:41.756Z,22.70
2022-07-29T17:40:43.638Z,22.80
2022-07-29T17:44:45.613Z,23.10
2022-07-29T17:48:47.470Z,23.30
2022-07-29T17:52:49.202Z,23.60
2022-07-29T17:56:51.046Z,23.70
2022-07-29T18:00:53.248Z,23.30
2022-07-29T18:04:55.017Z,23.20
2022-07-29T18:08:56.879Z,23.40
2022-07-29T18:13:00.139Z,23.00
2022-07-29T18:17:02.286Z,23.30
2022-07-29T18:21:05.751Z,23.10
2022-07-29T18:25:08.242Z,23.30
2022-07-29T18:29:10.507Z,23.00
2022-07-29T18:33:21.608Z,23.10
2022-07-29T18:38:00.311Z,23.30
2022-07-29T18:41:49.942Z,23.50
2022-07-29T18:45:52.356Z,23.70
2022-07-29T18:49:54.534Z,23.40
2022-07-29T18:53:56.605Z,23.70
2022-07-29T18:57:58.523Z,23.60
2022-07-29T19:02:00.536Z,23.60
2022-07-29T19:06:02.474Z,23.80
2022-07-29T19:10:05.403Z,24.10
2022-07-29T19:14:07.537Z,24.20
2022-07-29T19:18:09.507Z,23.90
2022-07-29T19:22:13.083Z,24.10
2022-07-29T19:26:20.702Z,23.80
2022-07-29T19:30:24.147Z,23.90
2022-07-29T19:34:27.132Z,24.20
2022-07-29T19:38:30.541Z,23.90
2022-07-29T19:42:32.518Z,24.30
2022-07-29T19:46:34.518Z,24.20
2022-07-29T19:50:36.928Z,23.90
2022-07-29T19:54:38.774Z,23.80
2022-07-29T19:58:40.783Z,23.60
2022-07-29T20:02:43.464Z,22.50
2022-07-29T20:06:45.339Z,22.10
2022-07-29T20:10:47.397Z,21.90
2022-07-29T20:14:50.543Z,22.10
2022-07-29T20:18:52.426Z,22.60
2022-07-29T20:22:54.479Z,23.30
2022-07-29T20:26:56.534Z,23.60
2022-07-29T20:30:58.503Z,23.00
2022-07-29T20:35:00.669Z,23.50
2022-07-29T20:39:02.606Z,23.10
2022-07-29T20:43:05.907Z,23.30
2022-07-29T20:47:08.196Z,23.20
2022-07-29T20:51:10.256Z,23.30
2022-07-29T20:55:12.069Z,23.50
2022-07-29T20:59:13.958Z,23.60
2022-07-29T21:03:17.500Z,23.30
2022-07-29T21:07:19.388Z,23.50
2022-07-29T21:11:43.474Z,23.40
2022-07-29T21:15:46.159Z,22.60
2022-07-29T21:19:48.014Z,21.60
2022-07-29T21:23:49.725Z,21.50
2022-07-29T21:28:10.605Z,21.70
2022-07-29T21:32:12.419Z,22.40
2022-07-29T21:36:46.753Z,23.20
2022-07-29T21:40:37.806Z,23.70
2022-07-29T21:44:41.108Z,24.10
2022-07-29T21:48:44.662Z,24.20
2022-07-29T21:52:46.684Z,24.40
2022-07-29T21:56:51.154Z,24.50
2022-07-29T22:00:53.808Z,24.10
2022-07-29T22:04:55.743Z,24.20
2022-07-29T22:08:57.447Z,24.10
2022-07-29T22:13:00.832Z,24.20
2022-07-29T22:17:03.165Z,24.40
2022-07-29T22:21:05.241Z,24.20
2022-07-29T22:25:08.407Z,23.90
2022-07-29T22:29:11.654Z,23.90
2022-07-29T22:33:17.824Z,23.80
2022-07-29T22:37:19.953Z,23.90
2022-07-29T22:41:24.733Z,23.80
2022-07-29T22:45:26.466Z,23.60
2022-07-29T22:49:28.201Z,23.40
2022-07-29T22:53:29.952Z,23.30
2022-07-29T22:57:31.857Z,23.30
2022-07-29T23:01:37.112Z,23.30
2022-07-29T23:05:39.762Z,23.30
2022-07-29T23:09:41.635Z,23.20
2022-07-29T23:13:43.427Z,23.50
2022-07-29T23:17:45.155Z,23.50
2022-07-29T23:21:46.893Z,23.40
2022-07-29T23:25:48.718Z,23.20
2022-07-29T23:29:51.449Z,22.90
2022-07-29T23:33:53.149Z,22.70
2022-07-29T23:37:54.907Z,22.70
2022-07-29T23:42:08.801Z,22.40
2022-07-29T23:46:10.683Z,22.40
2022-07-29T23:50:13.817Z,22.50
2022-07-29T23:54:15.598Z,22.30
2022-07-29T23:58:17.348Z,22.40
